Van Buren, Minnesota
Current Conditions -  °F | °C
As of 9:56 PM on Saturday 22 Nov 2014 (Local Time) from KCOQ Reporting Station
Haze Haze  
Wind Chill: 28°   Ceiling: 400
Heat Index: 34°   Visibility: 2.5mi
Dew Point: 30°   Wind: 7mph
Humidity: 87%   Direction: 130°SE
Pressure: 29.54"   Gusts: NA
Location:  46.9584°N, 92.9445°W
Report Text: KCOQ 230356Z AUTO 13006KT 2 1/2SM BR OVC004 01/M01 A2954 RMK AO2
Loading
Personal Weather Stations






























Interactive Weather Map New forecast layout! Learn more

10-Day Weather Forecast

Advertisements
Track Severe Weather on mobile